createdAt,value
2022-08-07T00:01:12.658Z,99365.38
2022-08-07T00:03:50.097Z,99367.88
2022-08-07T00:06:16.470Z,99365.28
2022-08-07T00:08:44.337Z,99367.16
2022-08-07T00:11:10.951Z,99370.44
2022-08-07T00:13:40.519Z,99362.72
2022-08-07T00:16:11.537Z,99364.59
2022-08-07T00:18:43.847Z,99362.81
2022-08-07T00:21:56.221Z,99368.44
2022-08-07T00:23:56.985Z,99365.66
2022-08-07T00:26:48.833Z,99368.38
2022-08-07T00:29:09.560Z,99366.50
2022-08-07T00:31:42.144Z,99368.66
2022-08-07T00:34:09.271Z,99358.22
2022-08-07T00:36:36.115Z,99361.53
2022-08-07T00:39:05.119Z,99363.97
2022-08-07T00:56:00.651Z,99353.44
2022-08-07T00:58:03.848Z,99363.19
2022-08-07T01:00:31.173Z,99362.22
2022-08-07T01:02:57.698Z,99360.34
2022-08-07T01:05:25.256Z,99355.22
2022-08-07T01:07:51.700Z,99362.59
2022-08-07T01:10:18.804Z,99353.38
2022-08-07T01:12:53.880Z,99361.66
2022-08-07T01:25:53.831Z,99351.13
2022-08-07T01:28:21.968Z,99350.28
2022-08-07T01:30:51.239Z,99359.38
2022-08-07T01:33:18.555Z,99349.38
2022-08-07T01:35:54.401Z,99348.97
2022-08-07T01:38:31.800Z,99348.84
2022-08-07T01:40:59.269Z,99343.91
2022-08-07T01:43:26.145Z,99348.03
2022-08-07T01:46:12.344Z,99352.88
2022-08-07T01:48:50.007Z,99360.38
2022-08-07T01:52:03.311Z,99357.41
2022-08-07T01:54:21.994Z,99361.28
2022-08-07T02:00:28.615Z,99362.22
2022-08-07T02:03:12.286Z,99358.06
2022-08-07T02:05:59.495Z,99355.50
2022-08-07T02:08:27.544Z,99351.47
2022-08-07T02:10:57.991Z,99355.50
2022-08-07T02:13:27.627Z,99352.50
2022-08-07T02:16:14.368Z,99353.06
2022-08-07T02:18:45.381Z,99353.72
2022-08-07T02:21:16.110Z,99359.88
2022-08-07T02:23:43.411Z,99360.22
2022-08-07T02:26:33.149Z,99356.00
2022-08-07T02:28:57.806Z,99354.69
2022-08-07T02:34:11.086Z,99356.03
2022-08-07T02:36:39.085Z,99367.25
2022-08-07T02:42:35.795Z,99367.28
2022-08-07T02:45:54.745Z,99362.66
2022-08-07T02:47:50.756Z,99363.31
2022-08-07T02:50:18.420Z,99356.22
2022-08-07T02:52:47.900Z,99355.56
2022-08-07T02:55:28.765Z,99358.88
2022-08-07T02:58:10.332Z,99350.13
2022-08-07T03:00:39.299Z,99347.81
2022-08-07T03:06:41.989Z,99355.81
2022-08-07T03:19:55.227Z,99346.16
2022-08-07T03:49:34.397Z,99340.94
2022-08-07T04:13:00.503Z,99346.03
2022-08-07T04:18:57.301Z,99355.50
2022-08-07T08:18:36.842Z,99354.03
2022-08-07T08:20:31.859Z,99352.00
2022-08-07T08:23:18.430Z,99342.44
2022-08-07T08:26:07.117Z,99354.16
2022-08-07T08:28:53.422Z,99348.50
2022-08-07T08:31:30.279Z,99345.56
2022-08-07T08:34:12.491Z,99359.50
2022-08-07T08:36:57.554Z,99344.81
2022-08-07T08:39:25.475Z,99345.09
2022-08-07T08:42:11.498Z,99339.16
2022-08-07T08:44:44.604Z,99343.09
2022-08-07T08:47:21.797Z,99346.72
2022-08-07T08:50:09.833Z,99349.94
2022-08-07T08:52:40.771Z,99342.47
2022-08-07T08:55:54.674Z,99340.91
2022-08-07T08:58:45.804Z,99336.06
2022-08-07T09:01:18.678Z,99338.78
2022-08-07T09:03:55.643Z,99347.59
2022-08-07T09:06:48.246Z,99330.97
2022-08-07T09:09:36.563Z,99345.13
2022-08-07T09:12:31.757Z,99341.16
2022-08-07T09:16:22.612Z,99338.69
2022-08-07T09:18:20.575Z,99336.41
2022-08-07T09:20:58.070Z,99336.34
2022-08-07T09:24:30.859Z,99343.91
2022-08-07T09:26:39.165Z,99325.19
2022-08-07T09:30:03.322Z,99331.91
2022-08-07T09:32:05.809Z,99326.28
2022-08-07T09:34:58.020Z,99324.44
2022-08-07T09:37:48.504Z,99314.44
2022-08-07T09:40:17.908Z,99323.69
2022-08-07T09:43:04.186Z,99319.25
2022-08-07T09:47:25.280Z,99306.25
2022-08-07T09:48:50.082Z,99306.38
2022-08-07T09:52:15.875Z,99309.78
2022-08-07T09:54:16.265Z,99305.69
2022-08-07T09:57:02.805Z,99303.09
2022-08-07T09:59:35.828Z,99302.34
2022-08-07T10:02:24.245Z,99299.53
2022-08-07T10:05:12.637Z,99290.88
2022-08-07T10:07:52.548Z,99283.00
2022-08-07T10:10:21.672Z,99283.28
2022-08-07T10:13:05.363Z,99277.69
2022-08-07T10:15:45.711Z,99270.38
2022-08-07T10:18:36.266Z,99275.13
2022-08-07T10:21:19.736Z,99274.16
2022-08-07T10:24:21.363Z,99271.88
2022-08-07T10:26:59.363Z,99268.41
2022-08-07T10:29:35.109Z,99265.22
2022-08-07T10:32:51.153Z,99261.69
2022-08-07T10:35:15.034Z,99264.78
2022-08-07T10:38:21.014Z,99264.44
2022-08-07T10:40:52.025Z,99256.38
2022-08-07T10:43:34.167Z,99243.25
2022-08-07T10:46:05.175Z,99242.41
2022-08-07T10:48:37.705Z,99245.78
2022-08-07T10:51:16.820Z,99237.88
2022-08-07T10:54:14.089Z,99241.94
2022-08-07T10:56:54.644Z,99236.72
2022-08-07T10:59:37.365Z,99229.59
2022-08-07T11:02:32.921Z,99235.56
2022-08-07T11:05:10.671Z,99228.63
2022-08-07T11:07:58.697Z,99225.75
2022-08-07T11:10:27.553Z,99225.47
2022-08-07T11:13:42.292Z,99216.16
2022-08-07T11:15:57.236Z,99216.09
2022-08-07T11:18:30.142Z,99213.91
2022-08-07T11:20:59.136Z,99204.75
2022-08-07T11:23:38.399Z,99212.94
2022-08-07T11:26:28.215Z,99206.00
2022-08-07T11:29:01.316Z,99209.03
2022-08-07T11:31:37.165Z,99205.34
2022-08-07T11:34:22.260Z,99204.22
2022-08-07T11:37:00.843Z,99198.41
2022-08-07T11:39:59.220Z,99194.91
2022-08-07T11:42:41.377Z,99191.13
2022-08-07T11:45:12.310Z,99191.25
2022-08-07T11:47:56.094Z,99191.44
2022-08-07T11:50:35.279Z,99181.91
2022-08-07T11:53:25.424Z,99184.03
2022-08-07T11:56:27.158Z,99176.97
2022-08-07T11:59:03.556Z,99174.94
2022-08-07T12:02:03.987Z,99161.72
2022-08-07T12:05:02.676Z,99160.59
2022-08-07T12:07:44.785Z,99168.34
2022-08-07T12:10:41.616Z,99161.09
2022-08-07T12:13:16.891Z,99154.25
2022-08-07T12:16:05.882Z,99161.31
2022-08-07T12:18:51.301Z,99157.88
2022-08-07T12:21:55.196Z,99156.75
2022-08-07T12:24:37.883Z,99149.25
2022-08-07T12:27:15.721Z,99148.25
2022-08-07T12:29:51.676Z,99145.97
2022-08-07T12:32:30.934Z,99149.31
2022-08-07T12:34:57.969Z,99140.22
2022-08-07T12:37:28.631Z,99135.81
2022-08-07T12:40:36.217Z,99132.19
2022-08-07T12:43:00.977Z,99130.28
2022-08-07T12:45:33.489Z,99135.50
2022-08-07T12:48:04.077Z,99133.53
2022-08-07T12:50:49.071Z,99133.44
2022-08-07T12:54:02.951Z,99120.09
2022-08-07T12:56:33.170Z,99123.16
2022-08-07T12:59:00.694Z,99126.00
2022-08-07T13:01:32.042Z,99119.25
2022-08-07T13:04:31.597Z,99123.59
2022-08-07T13:08:12.342Z,99117.69
2022-08-07T13:10:39.788Z,99123.06
2022-08-07T13:13:47.478Z,99105.53
2022-08-07T13:16:00.126Z,99108.03
2022-08-07T13:18:38.647Z,99107.91
2022-08-07T13:21:04.965Z,99102.25
2022-08-07T13:24:01.196Z,99098.00
2022-08-07T13:26:46.140Z,99099.75
2022-08-07T13:29:15.490Z,99093.03
2022-08-07T13:31:57.459Z,99095.88
2022-08-07T13:34:35.863Z,99082.81
2022-08-07T13:37:22.674Z,99079.19
2022-08-07T13:40:36.819Z,99078.69
2022-08-07T13:42:56.363Z,99075.56
2022-08-07T13:46:10.833Z,99073.16
2022-08-07T13:48:20.836Z,99064.16
2022-08-07T13:51:01.174Z,99060.75
2022-08-07T13:53:45.732Z,99064.81
2022-08-07T13:56:36.052Z,99061.03
2022-08-07T13:59:12.022Z,99064.50
2022-08-07T14:01:59.123Z,99052.31
2022-08-07T14:04:36.141Z,99057.69
2022-08-07T14:07:09.286Z,99043.56
2022-08-07T14:10:02.303Z,99035.22
2022-08-07T14:12:31.072Z,99048.06
2022-08-07T14:15:04.663Z,99048.78
2022-08-07T14:18:15.711Z,99051.69
2022-08-07T14:20:41.711Z,99041.69
2022-08-07T14:23:17.966Z,99037.69
2022-08-07T14:26:08.435Z,99040.50
2022-08-07T14:28:59.763Z,99043.41
2022-08-07T14:31:26.017Z,99036.22
2022-08-07T14:34:11.845Z,99045.75
2022-08-07T14:36:47.708Z,99037.63
2022-08-07T14:40:17.391Z,99038.16
2022-08-07T14:42:20.357Z,99029.47
2022-08-07T14:44:52.303Z,99034.88
2022-08-07T14:47:19.239Z,99033.19
2022-08-07T14:49:58.043Z,99028.50
2022-08-07T14:52:28.859Z,99030.59
2022-08-07T14:54:58.646Z,99020.59
2022-08-07T14:57:54.621Z,99026.06
2022-08-07T15:00:12.615Z,99026.50
2022-08-07T15:02:57.230Z,99032.84
2022-08-07T15:05:24.149Z,99027.78
2022-08-07T15:10:59.046Z,99024.97
2022-08-07T15:13:36.838Z,99029.25
2022-08-07T15:16:11.129Z,99025.50
2022-08-07T15:21:45.035Z,99015.06
2022-08-07T15:25:12.961Z,99019.25
2022-08-07T15:27:08.273Z,99018.34
2022-08-07T15:30:04.435Z,99019.47
2022-08-07T15:32:40.129Z,99014.63
2022-08-07T15:35:16.760Z,99015.28
2022-08-07T15:38:17.846Z,99017.59
2022-08-07T15:40:35.986Z,99018.53
2022-08-07T15:43:05.812Z,99018.34
2022-08-07T15:45:55.946Z,99013.53
2022-08-07T15:48:25.737Z,99004.97
2022-08-07T15:51:02.014Z,98999.03
2022-08-07T15:53:52.647Z,99009.19
2022-08-07T15:56:21.523Z,98997.81
2022-08-07T15:58:57.889Z,99000.75
2022-08-07T16:01:38.723Z,99001.69
2022-08-07T16:04:14.824Z,99004.06
2022-08-07T16:06:59.113Z,98997.66
2022-08-07T16:09:48.812Z,98992.91
2022-08-07T16:13:00.870Z,98987.69
2022-08-07T16:15:57.284Z,98985.94
2022-08-07T16:18:49.479Z,98982.81
2022-08-07T16:21:56.878Z,98985.53
2022-08-07T16:24:34.304Z,98983.00
2022-08-07T16:27:17.922Z,98988.63
2022-08-07T16:30:29.711Z,98989.22
2022-08-07T16:34:02.073Z,98989.91
2022-08-07T16:36:05.129Z,98989.91
2022-08-07T16:39:01.034Z,98990.16
2022-08-07T16:41:54.182Z,98991.50
2022-08-07T16:44:55.463Z,98981.91
2022-08-07T16:47:53.031Z,98983.47
2022-08-07T16:50:37.066Z,98993.38
2022-08-07T16:53:48.086Z,98984.34
2022-08-07T16:56:09.777Z,98990.56
2022-08-07T16:59:14.895Z,98986.94
2022-08-07T17:01:41.636Z,98985.47
2022-08-07T17:04:24.607Z,98982.34
2022-08-07T17:06:58.104Z,98984.22
2022-08-07T17:10:05.078Z,98984.97
2022-08-07T17:12:34.109Z,98981.00
2022-08-07T17:15:06.620Z,98985.25
2022-08-07T17:17:47.004Z,98981.19
2022-08-07T17:20:21.666Z,98981.22
2022-08-07T17:22:53.680Z,98989.44
2022-08-07T17:25:47.184Z,98986.81
2022-08-07T17:28:20.015Z,98981.66
2022-08-07T17:30:59.972Z,98977.28
2022-08-07T17:34:15.232Z,98984.81
2022-08-07T17:36:57.951Z,98979.19
2022-08-07T17:39:23.601Z,98986.88
2022-08-07T17:42:20.974Z,98983.16
2022-08-07T17:44:50.539Z,98979.91
2022-08-07T17:47:38.612Z,98976.66
2022-08-07T17:50:20.581Z,98985.09
2022-08-07T17:53:05.900Z,98979.72
2022-08-07T17:55:54.744Z,98983.09
2022-08-07T17:58:31.735Z,98983.88
2022-08-07T18:01:01.948Z,98977.56
2022-08-07T18:04:04.304Z,98984.91
2022-08-07T18:06:37.237Z,98972.47
2022-08-07T18:09:06.492Z,98981.28
2022-08-07T18:12:08.365Z,98978.44
2022-08-07T18:14:46.260Z,98975.22
2022-08-07T18:19:02.350Z,98984.53
2022-08-07T18:21:12.329Z,98982.97
2022-08-07T18:23:06.660Z,98976.22
2022-08-07T18:26:00.973Z,98979.31
2022-08-07T18:28:35.972Z,98979.53
2022-08-07T18:31:38.701Z,98977.84
2022-08-07T18:34:39.267Z,98974.63
2022-08-07T18:37:11.166Z,98980.94
2022-08-07T18:40:08.405Z,98987.66
2022-08-07T18:42:43.272Z,98995.19
2022-08-07T18:45:43.416Z,98995.47
2022-08-07T18:48:05.479Z,99001.78
2022-08-07T18:50:45.948Z,99007.41
2022-08-07T18:53:13.913Z,99010.44
2022-08-07T18:55:59.287Z,99009.75
2022-08-07T18:58:29.858Z,99016.88
2022-08-07T19:02:18.708Z,99018.53
2022-08-07T19:04:03.850Z,99024.94
2022-08-07T19:06:41.030Z,99025.91
2022-08-07T19:09:56.198Z,99024.56
2022-08-07T19:12:06.607Z,99023.91
2022-08-07T19:14:42.339Z,99032.09
2022-08-07T19:18:01.569Z,99038.59
2022-08-07T19:20:29.097Z,99044.28
2022-08-07T19:23:18.595Z,99045.28
2022-08-07T19:26:23.164Z,99045.22
2022-08-07T19:30:55.584Z,99041.59
2022-08-07T19:32:09.686Z,99042.13
2022-08-07T19:34:32.383Z,99042.28
2022-08-07T19:37:10.260Z,99046.34
2022-08-07T19:39:57.800Z,99056.56
2022-08-07T19:42:30.704Z,99055.50
2022-08-07T19:45:00.569Z,99052.50
2022-08-07T19:47:36.695Z,99048.25
2022-08-07T19:50:44.466Z,99055.56
2022-08-07T19:52:58.704Z,99052.44
2022-08-07T19:55:26.285Z,99055.50
2022-08-07T19:58:15.357Z,99064.34
2022-08-07T20:00:54.174Z,99068.41
2022-08-07T20:03:33.775Z,99069.78
2022-08-07T20:06:03.440Z,99074.28
2022-08-07T20:08:32.122Z,99060.97
2022-08-07T20:11:01.914Z,99070.22
2022-08-07T20:13:37.318Z,99070.97
2022-08-07T20:16:15.876Z,99072.13
2022-08-07T20:18:59.546Z,99071.38
2022-08-07T20:21:46.923Z,99072.13
2022-08-07T20:24:19.417Z,99076.22
2022-08-07T20:26:52.152Z,99072.53
2022-08-07T20:29:48.092Z,99073.28
2022-08-07T20:32:22.215Z,99079.91
2022-08-07T20:34:51.674Z,99076.22
2022-08-07T20:37:25.405Z,99086.09
2022-08-07T20:40:02.323Z,99083.56
2022-08-07T20:42:31.510Z,99086.88
2022-08-07T20:45:00.941Z,99083.91
2022-08-07T20:47:56.130Z,99083.53
2022-08-07T20:50:18.184Z,99080.59
2022-08-07T20:52:51.430Z,99086.47
2022-08-07T20:55:20.489Z,99073.22
2022-08-07T20:58:03.409Z,99077.66
2022-08-07T21:00:31.966Z,99076.19
2022-08-07T21:02:58.677Z,99078.72
2022-08-07T21:05:52.802Z,99082.78
2022-08-07T21:08:19.865Z,99077.63
2022-08-07T21:11:01.226Z,99079.09
2022-08-07T21:13:43.847Z,99087.94
2022-08-07T21:16:17.881Z,99083.06
2022-08-07T21:18:46.142Z,99090.31
2022-08-07T21:21:17.807Z,99085.53
2022-08-07T21:24:00.609Z,99090.38
2022-08-07T21:26:46.030Z,99089.97
2022-08-07T21:29:18.150Z,99092.94
2022-08-07T21:32:46.585Z,99097.97
2022-08-07T21:34:48.814Z,99100.22
2022-08-07T21:37:21.694Z,99096.16
2022-08-07T21:39:59.469Z,99097.63
2022-08-07T21:42:46.594Z,99101.31
2022-08-07T21:46:05.169Z,99104.22
2022-08-07T21:48:28.971Z,99101.97
2022-08-07T21:51:19.903Z,99099.06
2022-08-07T21:53:52.734Z,99099.03
2022-08-07T21:56:37.710Z,99108.88
2022-08-07T21:59:06.801Z,99112.88
2022-08-07T22:02:10.210Z,99113.63
2022-08-07T22:04:33.814Z,99110.25
2022-08-07T22:07:02.043Z,99113.88
2022-08-07T22:09:53.758Z,99109.88
2022-08-07T22:12:24.660Z,99110.56
2022-08-07T22:14:59.334Z,99109.47
2022-08-07T22:17:35.834Z,99114.19
2022-08-07T22:20:03.900Z,99108.31
2022-08-07T22:22:34.531Z,99113.72
2022-08-07T22:25:11.145Z,99119.53
2022-08-07T22:28:08.319Z,99114.72
2022-08-07T22:31:04.960Z,99109.50
2022-08-07T22:33:57.226Z,99110.53
2022-08-07T22:36:46.410Z,99110.09
2022-08-07T22:39:23.389Z,99106.06
2022-08-07T22:42:16.092Z,99110.81
2022-08-07T22:44:58.238Z,99109.38
2022-08-07T22:47:26.273Z,99114.81
2022-08-07T22:49:54.801Z,99113.00
2022-08-07T22:52:47.104Z,99112.59
2022-08-07T22:55:36.347Z,99110.53
2022-08-07T22:58:14.882Z,99111.94
2022-08-07T23:00:59.980Z,99112.63
2022-08-07T23:03:58.942Z,99105.09
2022-08-07T23:06:26.311Z,99110.44
2022-08-07T23:10:04.410Z,99108.88
2022-08-07T23:11:59.409Z,99115.78
2022-08-07T23:14:37.810Z,99109.50
2022-08-07T23:17:15.659Z,99111.91
2022-08-07T23:20:04.749Z,99116.47
2022-08-07T23:22:49.668Z,99112.06
2022-08-07T23:25:33.766Z,99115.38
2022-08-07T23:28:29.471Z,99122.66
2022-08-07T23:31:11.605Z,99123.41
2022-08-07T23:34:34.649Z,99117.53
2022-08-07T23:37:19.866Z,99114.84
2022-08-07T23:40:04.227Z,99119.56
2022-08-07T23:42:53.292Z,99121.25
2022-08-07T23:45:33.508Z,99122.66
2022-08-07T23:48:25.035Z,99122.59
2022-08-07T23:50:57.580Z,99126.28
2022-08-07T23:53:51.899Z,99127.00
2022-08-07T23:56:38.909Z,99129.19
